| time (UTC) | temp F | wind direction | speed knots | gust knots | rain 1hr in | rain 24hr in | rain mn in | humidity % | barometer mb |
| 20260504003036 | 61 | 192 | 3.5 | 8.7 | 0.00 | 0.00 | 0.00 | 29 | 1008.6 |
| 20260504001520 | 62 | 202 | 4.3 | 8.7 | 0.00 | 0.00 | 0.00 | 28 | 1008.5 |
| 20260504000019 | 63 | 203 | 6.1 | 13.0 | 0.00 | 0.00 | 0.00 | 27 | 1008.4 |
| 20260503234519 | 63 | 214 | 4.3 | 9.6 | 0.00 | 0.00 | 0.00 | 27 | 1008.6 |
| 20260503233018 | 64 | 179 | 6.1 | 11.3 | 0.00 | 0.00 | 0.00 | 25 | 1008.5 |
| 20260503231516 | 64 | 175 | 5.2 | 10.4 | 0.00 | 0.00 | 0.00 | 24 | 1008.5 |
| 20260503230014 | 65 | 222 | 4.3 | 10.4 | 0.00 | 0.00 | 0.00 | 24 | 1008.8 |
| 20260503224524 | 64 | 231 | 6.1 | 14.8 | 0.00 | 0.00 | 0.00 | 24 | 1009.2 |
| 20260503223010 | 64 | 213 | 8.7 | 13.9 | 0.00 | 0.00 | 0.00 | 22 | 1009.4 |
| 20260503221509 | 65 | 157 | 4.3 | 8.7 | 0.00 | 0.00 | 0.00 | 21 | 1009.7 |
| 20260503220108 | 65 | 168 | 7.0 | 14.8 | 0.00 | 0.00 | 0.00 | 21 | 1009.5 |
| 20260503214505 | 66 | 223 | 7.0 | 14.8 | 0.00 | 0.00 | 0.00 | 19 | 1010.1 |
| 20260503213004 | 65 | 263 | 6.1 | 15.6 | 0.00 | 0.00 | 0.00 | 21 | 1010.2 |
| 20260503211504 | 65 | 223 | 8.7 | 17.4 | 0.00 | 0.00 | 0.00 | 19 | 1010.3 |
| 20260503210002 | 66 | 221 | 6.1 | 13.0 | 0.00 | 0.00 | 0.00 | 18 | 1010.1 |
| 20260503204600 | 67 | 199 | 7.0 | 11.3 | 0.00 | 0.00 | 0.00 | 19 | 1010.6 |
| 20260503203109 | 66 | 225 | 7.0 | 13.0 | 0.00 | 0.00 | 0.00 | 18 | 1010.7 |
| 20260503201559 | 66 | 219 | 4.3 | 13.0 | 0.00 | 0.00 | 0.00 | 19 | 1011.0 |
| 20260503200053 | 65 | 186 | 3.5 | 13.0 | 0.00 | 0.00 | 0.00 | 18 | 1011.3 |
| 20260503194554 | 65 | 231 | 4.3 | 15.6 | 0.00 | 0.00 | 0.00 | 18 | 1012.0 |
| 20260503193047 | 65 | 222 | 7.0 | 17.4 | 0.00 | 0.00 | 0.00 | 17 | 1012.4 |
| 20260503191546 | 65 | 227 | 7.0 | 13.9 | 0.00 | 0.00 | 0.00 | 17 | 1012.7 |
| 20260503190043 | 64 | 150 | 5.2 | 13.9 | 0.00 | 0.00 | 0.00 | 17 | 1012.9 |
| 20260503184600 | 64 | 196 | 7.8 | 13.0 | 0.00 | 0.00 | 0.00 | 17 | 1013.2 |
| 20260503183040 | 65 | 260 | 7.0 | 11.3 | 0.00 | 0.00 | 0.00 | 17 | 1013.6 |
| 20260503181535 | 64 | 176 | 4.3 | 10.4 | 0.00 | 0.00 | 0.00 | 18 | 1013.6 |
| 20260503180036 | 64 | 173 | 4.3 | 13.0 | 0.00 | 0.00 | 0.00 | 19 | 1013.9 |
| 20260503174533 | 63 | 216 | 6.1 | 15.6 | 0.00 | 0.00 | 0.00 | 20 | 1014.1 |
| 20260503173034 | 62 | 152 | 6.1 | 11.3 | 0.00 | 0.00 | 0.00 | 20 | 1014.4 |
| 20260503171526 | 62 | 191 | 2.6 | 9.6 | 0.00 | 0.00 | 0.00 | 20 | 1014.7 |
| 20260503081503 | 38 | 329 | 0.0 | 0.0 | 0.00 | 0.00 | 0.00 | 55 | 1014.8 |
| 20260503071611 | 38 | 329 | 0.0 | 0.0 | 0.00 | 0.00 | 0.00 | 54 | 1014.6 |
| 20260503054556 | 42 | 329 | 0.0 | 0.0 | 0.00 | 0.00 | 0.00 | 49 | 1014.8 |
| 20260503053042 | 43 | 329 | 0.0 | 0.0 | 0.00 | 0.00 | 0.00 | 48 | 1014.9 |
| 20260503051539 | 43 | 329 | 0.0 | 0.0 | 0.00 | 0.00 | 0.00 | 48 | 1014.8 |
| 20260503050041 | 45 | 329 | 0.0 | 0.0 | 0.00 | 0.00 | 0.00 | 45 | 1014.8 |
| 20260503044545 | 45 | 329 | 0.0 | 2.6 | 0.00 | 0.00 | 0.00 | 44 | 1014.8 |
| 20260503043043 | 46 | 329 | 1.7 | 4.3 | 0.00 | 0.00 | 0.00 | 42 | 1014.8 |
| 20260503041529 | 46 | 329 | 2.6 | 4.3 | 0.00 | 0.00 | 0.00 | 43 | 1014.7 |
| 20260503040032 | 46 | 328 | 0.9 | 3.5 | 0.00 | 0.00 | 0.00 | 42 | 1014.7 |
| 20260503034525 | 47 | 328 | 0.9 | 3.5 | 0.00 | 0.00 | 0.00 | 42 | 1014.7 |
| 20260503033023 | 47 | 328 | 1.7 | 3.5 | 0.00 | 0.00 | 0.00 | 42 | 1014.7 |
| 20260503031622 | 48 | 328 | 2.6 | 4.3 | 0.00 | 0.00 | 0.00 | 41 | 1014.5 |
| 20260503030021 | 48 | 328 | 2.6 | 3.5 | 0.00 | 0.00 | 0.00 | 42 | 1014.4 |
| 20260503024520 | 49 | 328 | 1.7 | 2.6 | 0.00 | 0.00 | 0.00 | 41 | 1014.5 |
| 20260503023020 | 49 | 328 | 0.9 | 2.6 | 0.00 | 0.00 | 0.00 | 40 | 1014.4 |
| 20260503021517 | 50 | 328 | 0.9 | 2.6 | 0.00 | 0.00 | 0.00 | 39 | 1014.1 |
| 20260503020016 | 50 | 328 | 0.9 | 3.5 | 0.00 | 0.00 | 0.00 | 39 | 1013.9 |
| 20260503014515 | 50 | 328 | 1.7 | 4.3 | 0.00 | 0.00 | 0.00 | 39 | 1013.6 |
| 20260503013015 | 51 | 327 | 0.9 | 2.6 | 0.00 | 0.00 | 0.00 | 39 | 1013.4 |
| 20260503011515 | 51 | 327 | 1.7 | 3.5 | 0.00 | 0.00 | 0.00 | 40 | 1013.1 |
| 20260503010014 | 52 | 327 | 1.7 | 4.3 | 0.00 | 0.00 | 0.00 | 39 | 1012.9 |
| 20260503004514 | 53 | 326 | 1.7 | 3.5 | 0.00 | 0.00 | 0.00 | 38 | 1012.8 |